createdAt,value
2017-11-16T00:00:03.933Z,98677.61
2017-11-16T00:00:35.564Z,98676.34
2017-11-16T00:01:07.188Z,98677.19
2017-11-16T00:01:38.841Z,98678.43
2017-11-16T00:02:10.480Z,98677.13
2017-11-16T00:02:42.358Z,98675.84
2017-11-16T00:03:13.979Z,98679.67
2017-11-16T00:03:45.716Z,98674.13
2017-11-16T00:04:17.666Z,98679.21
2017-11-16T00:04:49.332Z,98676.69
2017-11-16T00:05:20.959Z,98676.69
2017-11-16T00:05:52.899Z,98680.52
2017-11-16T00:06:24.537Z,98681.77
2017-11-16T00:06:56.488Z,98677.90
2017-11-16T00:07:28.139Z,98680.91
2017-11-16T00:07:59.788Z,98679.64
2017-11-16T00:08:31.723Z,98681.34
2017-11-16T00:09:03.671Z,98679.64
2017-11-16T00:09:35.311Z,98684.32
2017-11-16T00:10:06.956Z,98682.55
2017-11-16T00:10:38.597Z,98679.17
2017-11-16T00:11:10.238Z,98683.47
2017-11-16T00:11:41.880Z,98679.61
2017-11-16T00:12:13.522Z,98677.12
2017-11-16T00:12:45.161Z,98676.66
2017-11-16T00:13:16.806Z,98676.66
2017-11-16T00:13:48.432Z,98678.39
2017-11-16T00:14:20.089Z,98681.34
2017-11-16T00:14:51.755Z,98678.78
2017-11-16T00:15:23.379Z,98680.06
2017-11-16T00:15:55.017Z,98669.88
2017-11-16T00:16:26.657Z,98679.64
2017-11-16T00:16:58.336Z,98670.30
2017-11-16T00:17:29.961Z,98674.56
2017-11-16T00:18:01.829Z,98673.71
2017-11-16T00:18:33.452Z,98671.55
2017-11-16T00:19:05.128Z,98669.84
2017-11-16T00:19:37.003Z,98671.58
2017-11-16T00:20:08.766Z,98677.58
2017-11-16T00:20:40.410Z,98673.75
2017-11-16T00:21:12.048Z,98671.23
2017-11-16T00:21:43.999Z,98670.34
2017-11-16T00:22:15.862Z,98672.47
2017-11-16T00:22:47.496Z,98673.78
2017-11-16T00:23:19.233Z,98674.17
2017-11-16T00:23:50.877Z,98676.77
2017-11-16T00:24:22.543Z,98675.45
2017-11-16T00:24:54.167Z,98673.78
2017-11-16T00:25:26.102Z,98672.94
2017-11-16T00:25:57.747Z,98676.80
2017-11-16T00:26:29.390Z,98678.50
2017-11-16T00:27:01.031Z,98671.23
2017-11-16T00:27:32.699Z,98667.39
2017-11-16T00:28:04.323Z,98677.62
2017-11-16T00:28:35.958Z,98675.06
2017-11-16T00:29:07.603Z,98672.05
2017-11-16T00:29:39.247Z,98668.24
2017-11-16T00:30:10.897Z,98670.38
2017-11-16T00:30:42.766Z,98666.50
2017-11-16T00:31:14.395Z,98671.23
2017-11-16T00:31:46.019Z,98675.91
2017-11-16T00:32:17.759Z,98668.21
2017-11-16T00:32:49.423Z,98666.97
2017-11-16T00:33:21.348Z,98670.41
2017-11-16T00:33:53.555Z,98674.24
2017-11-16T00:34:25.192Z,98663.98
2017-11-16T00:34:56.889Z,98664.41
2017-11-16T00:35:28.533Z,98667.81
2017-11-16T00:36:00.446Z,98666.55
2017-11-16T00:36:32.111Z,98665.27
2017-11-16T00:37:03.764Z,98663.17
2017-11-16T00:37:35.406Z,98665.72
2017-11-16T00:38:07.047Z,98659.77
2017-11-16T00:38:38.884Z,98664.88
2017-11-16T00:39:10.547Z,98658.48
2017-11-16T00:39:42.280Z,98659.34
2017-11-16T00:40:13.923Z,98667.04
2017-11-16T00:40:45.565Z,98665.77
2017-11-16T00:41:17.206Z,98671.30
2017-11-16T00:41:48.849Z,98667.50
2017-11-16T00:42:20.502Z,98669.17
2017-11-16T00:42:52.375Z,98672.15
2017-11-16T00:43:24.004Z,98674.28
2017-11-16T00:43:55.675Z,98673.39
2017-11-16T00:44:27.303Z,98680.20
2017-11-16T00:44:58.927Z,98672.11
2017-11-16T00:45:30.555Z,98674.70
2017-11-16T00:46:02.291Z,98676.44
2017-11-16T00:46:33.932Z,98675.13
2017-11-16T00:47:05.570Z,98678.54
2017-11-16T00:47:37.255Z,98676.84
2017-11-16T00:48:08.882Z,98673.46
2017-11-16T00:48:40.503Z,98680.28
2017-11-16T00:49:12.142Z,98679.88
2017-11-16T00:49:43.784Z,98679.88
2017-11-16T00:50:15.429Z,98677.72
2017-11-16T00:50:47.067Z,98682.41
2017-11-16T00:51:18.699Z,98681.59
2017-11-16T00:51:50.351Z,98681.16
2017-11-16T00:52:21.993Z,98680.73
2017-11-16T00:52:53.644Z,98681.55
2017-11-16T00:53:25.274Z,98682.44
2017-11-16T00:53:56.940Z,98681.13
2017-11-16T00:54:28.563Z,98683.26
2017-11-16T00:55:00.202Z,98679.00
2017-11-16T00:55:31.846Z,98681.13
2017-11-16T00:56:03.512Z,98682.80
2017-11-16T00:56:35.143Z,98679.81
2017-11-16T00:57:07.009Z,98681.55
2017-11-16T00:57:38.635Z,98687.94
2017-11-16T00:58:10.362Z,98684.53
2017-11-16T00:58:43.232Z,98681.55
2017-11-16T00:59:14.859Z,98682.37
2017-11-16T00:59:46.497Z,98681.95
2017-11-16T01:00:18.159Z,98685.35
2017-11-16T01:00:49.797Z,98679.85
2017-11-16T01:01:21.463Z,98687.52
2017-11-16T01:01:53.090Z,98681.55
2017-11-16T01:02:24.726Z,98686.23
2017-11-16T01:02:56.366Z,98681.55
2017-11-16T01:03:28.013Z,98679.85
2017-11-16T01:03:59.680Z,98684.11
2017-11-16T01:04:31.304Z,98681.55
2017-11-16T01:05:03.242Z,98678.08
2017-11-16T01:05:34.884Z,98679.28
2017-11-16T01:06:06.526Z,98675.52
2017-11-16T01:06:38.169Z,98679.42
2017-11-16T01:07:09.810Z,98675.63
2017-11-16T01:07:41.451Z,98680.31
2017-11-16T01:08:13.097Z,98674.84
2017-11-16T01:08:44.736Z,98674.02
2017-11-16T01:09:16.377Z,98673.59
2017-11-16T01:09:48.021Z,98677.86
2017-11-16T01:10:19.712Z,98669.34
2017-11-16T01:10:51.343Z,98679.10
2017-11-16T01:11:22.967Z,98674.06
2017-11-16T01:11:54.596Z,98672.33
2017-11-16T01:12:26.468Z,98674.45
2017-11-16T01:12:58.095Z,98674.45
2017-11-16T01:13:29.724Z,98678.25
2017-11-16T01:14:01.464Z,98677.00
2017-11-16T01:14:33.091Z,98675.70
2017-11-16T01:15:04.746Z,98674.41
2017-11-16T01:15:36.424Z,98677.82
2017-11-16T01:16:08.048Z,98673.17
2017-11-16T01:16:39.978Z,98671.50
2017-11-16T01:17:11.621Z,98675.34
2017-11-16T01:17:43.262Z,98675.30
2017-11-16T01:18:14.904Z,98675.73
2017-11-16T01:18:46.551Z,98668.52
2017-11-16T01:19:18.186Z,98672.36
2017-11-16T01:19:49.829Z,98668.09
2017-11-16T01:20:21.472Z,98666.39
2017-11-16T01:20:53.144Z,98674.06
2017-11-16T01:21:24.771Z,98673.17
2017-11-16T01:21:56.407Z,98666.82
2017-11-16T01:22:28.347Z,98671.08
2017-11-16T01:22:59.988Z,98668.09
2017-11-16T01:23:31.630Z,98665.97
2017-11-16T01:24:03.275Z,98665.11
2017-11-16T01:24:34.915Z,98662.56
2017-11-16T01:25:06.556Z,98662.95
2017-11-16T01:25:38.195Z,98661.71
2017-11-16T01:26:09.859Z,98665.97
2017-11-16T01:26:41.494Z,98662.56
2017-11-16T01:27:13.115Z,98666.39
2017-11-16T01:27:44.765Z,98660.05
2017-11-16T01:28:16.407Z,98662.14
2017-11-16T01:28:48.048Z,98657.84
2017-11-16T01:29:19.691Z,98659.58
2017-11-16T01:29:51.339Z,98656.14
2017-11-16T01:30:22.974Z,98661.25
2017-11-16T01:30:54.617Z,98660.40
2017-11-16T01:31:26.288Z,98660.83
2017-11-16T01:31:57.911Z,98655.33
2017-11-16T01:32:29.780Z,98656.99
2017-11-16T01:33:01.408Z,98657.88
2017-11-16T01:33:33.040Z,98660.01
2017-11-16T01:34:04.776Z,98654.47
2017-11-16T01:34:36.418Z,98656.56
2017-11-16T01:35:08.060Z,98656.99
2017-11-16T01:35:39.706Z,98657.03
2017-11-16T01:36:11.651Z,98657.45
2017-11-16T01:36:43.596Z,98660.86
2017-11-16T01:37:15.239Z,98659.16
2017-11-16T01:37:46.902Z,98663.41
2017-11-16T01:38:18.762Z,98661.25
2017-11-16T01:38:50.472Z,98659.16
2017-11-16T01:39:22.119Z,98657.88
2017-11-16T01:39:53.758Z,98664.66
2017-11-16T01:40:25.400Z,98662.95
2017-11-16T01:40:57.041Z,98661.25
2017-11-16T01:41:28.683Z,98660.01
2017-11-16T01:42:00.325Z,98656.56
2017-11-16T01:42:31.965Z,98661.25
2017-11-16T01:43:03.608Z,98664.66
2017-11-16T01:43:35.277Z,98660.40
2017-11-16T01:44:06.908Z,98660.40
2017-11-16T01:44:38.844Z,98665.94
2017-11-16T01:45:10.592Z,98662.95
2017-11-16T01:45:42.434Z,98661.22
2017-11-16T01:46:14.072Z,98662.92
2017-11-16T01:46:45.716Z,98658.66
2017-11-16T01:47:17.383Z,98659.48
2017-11-16T01:47:49.010Z,98656.47
2017-11-16T01:48:20.832Z,98653.91
2017-11-16T01:48:52.504Z,98659.41
2017-11-16T01:49:24.239Z,98654.19
2017-11-16T01:49:55.880Z,98655.05
2017-11-16T01:50:27.825Z,98651.20
2017-11-16T01:50:59.467Z,98644.81
2017-11-16T01:51:31.108Z,98655.04
2017-11-16T01:52:02.747Z,98646.91
2017-11-16T01:52:34.392Z,98652.45
2017-11-16T01:53:06.027Z,98647.77
2017-11-16T01:53:37.676Z,98645.21
2017-11-16T01:54:09.343Z,98653.30
2017-11-16T01:54:40.969Z,98646.06
2017-11-16T01:55:12.607Z,98645.21
2017-11-16T01:55:44.244Z,98648.19
2017-11-16T01:56:15.885Z,98644.74
2017-11-16T01:56:47.535Z,98651.56
2017-11-16T01:57:19.175Z,98647.77
2017-11-16T01:57:50.812Z,98644.31
2017-11-16T01:58:22.453Z,98645.17
2017-11-16T01:58:54.123Z,98646.03
2017-11-16T01:59:25.747Z,98646.06
2017-11-16T01:59:57.687Z,98644.78
2017-11-16T02:00:29.328Z,98648.16
2017-11-16T02:01:00.971Z,98646.06
2017-11-16T02:01:32.640Z,98647.73
2017-11-16T02:02:04.269Z,98646.88
2017-11-16T02:02:35.904Z,98639.67
2017-11-16T02:03:07.538Z,98645.63
2017-11-16T02:03:39.203Z,98645.13
2017-11-16T02:04:10.867Z,98644.28
2017-11-16T02:04:42.500Z,98643.43
2017-11-16T02:05:14.124Z,98638.78
2017-11-16T02:05:45.751Z,98642.16
2017-11-16T02:06:17.389Z,98640.88
2017-11-16T02:06:49.031Z,98642.58
2017-11-16T02:07:20.674Z,98640.02
2017-11-16T02:07:52.551Z,98640.88
2017-11-16T02:08:24.175Z,98645.98
2017-11-16T02:08:55.906Z,98645.95
2017-11-16T02:09:27.576Z,98645.52
2017-11-16T02:09:59.199Z,98644.28
2017-11-16T02:10:30.832Z,98641.27
2017-11-16T02:11:02.498Z,98642.55
2017-11-16T02:11:34.127Z,98641.72
2017-11-16T02:12:06.065Z,98639.17
2017-11-16T02:12:37.704Z,98643.35
2017-11-16T02:13:09.349Z,98641.66
2017-11-16T02:13:40.988Z,98639.98
2017-11-16T02:14:12.633Z,98640.38
2017-11-16T02:14:44.299Z,98637.00
2017-11-16T02:15:15.925Z,98639.98
2017-11-16T02:15:47.594Z,98639.98
2017-11-16T02:16:19.219Z,98635.73
2017-11-16T02:16:50.848Z,98639.59
2017-11-16T02:17:22.484Z,98631.93
2017-11-16T02:17:54.125Z,98632.78
2017-11-16T02:18:25.766Z,98634.09
2017-11-16T02:18:57.409Z,98641.30
2017-11-16T02:19:29.091Z,98635.38
2017-11-16T02:20:00.716Z,98636.61
2017-11-16T02:20:32.347Z,98632.78
2017-11-16T02:21:03.980Z,98629.37
2017-11-16T02:21:35.618Z,98639.17
2017-11-16T02:22:07.683Z,98630.61
2017-11-16T02:22:39.508Z,98635.73
2017-11-16T02:23:11.158Z,98633.59
2017-11-16T02:23:42.804Z,98639.13
2017-11-16T02:24:14.442Z,98637.46
2017-11-16T02:24:46.116Z,98635.77
2017-11-16T02:25:17.739Z,98646.80
2017-11-16T02:25:49.573Z,98643.81
2017-11-16T02:26:21.317Z,98645.52
2017-11-16T02:26:52.948Z,98646.02
2017-11-16T02:27:24.580Z,98642.58
2017-11-16T02:27:56.243Z,98644.28
2017-11-16T02:28:27.885Z,98642.54
2017-11-16T02:28:59.527Z,98643.42
2017-11-16T02:29:31.169Z,98643.85
2017-11-16T02:30:02.840Z,98643.43
2017-11-16T02:30:34.472Z,98644.70
2017-11-16T02:31:06.102Z,98641.30
2017-11-16T02:31:37.780Z,98640.48
2017-11-16T02:32:09.408Z,98638.75
2017-11-16T02:32:41.041Z,98639.20
2017-11-16T02:33:12.670Z,98634.95
2017-11-16T02:33:44.306Z,98631.97
2017-11-16T02:34:16.173Z,98634.09
2017-11-16T02:34:47.799Z,98637.93
2017-11-16T02:35:19.539Z,98634.52
2017-11-16T02:35:51.179Z,98632.42
2017-11-16T02:36:22.823Z,98632.43
2017-11-16T02:36:54.491Z,98632.00
2017-11-16T02:37:26.117Z,98631.54
2017-11-16T02:37:57.861Z,98633.71
2017-11-16T02:38:29.696Z,98635.84
2017-11-16T02:39:01.337Z,98629.87
2017-11-16T02:39:32.981Z,98628.20
2017-11-16T02:40:04.621Z,98632.47
2017-11-16T02:40:36.298Z,98630.77
2017-11-16T02:41:07.927Z,98627.36
2017-11-16T02:41:39.599Z,98627.82
2017-11-16T02:42:11.229Z,98628.63
2017-11-16T02:42:42.870Z,98628.20
2017-11-16T02:43:14.499Z,98631.19
2017-11-16T02:43:46.167Z,98629.06
2017-11-16T02:44:17.796Z,98632.89
2017-11-16T02:44:49.423Z,98627.36
2017-11-16T02:45:21.048Z,98626.97
2017-11-16T02:45:52.680Z,98628.63
2017-11-16T02:46:24.323Z,98626.08
2017-11-16T02:46:55.965Z,98628.63
2017-11-16T02:47:27.607Z,98629.91
2017-11-16T02:47:59.281Z,98626.93
2017-11-16T02:48:30.903Z,98626.50
2017-11-16T02:49:02.539Z,98628.20
2017-11-16T02:49:34.163Z,98631.97
2017-11-16T02:50:05.818Z,98632.47
2017-11-16T02:50:37.767Z,98637.58
2017-11-16T02:51:09.393Z,98626.55
2017-11-16T02:51:41.051Z,98634.20
2017-11-16T02:52:12.728Z,98628.25
2017-11-16T02:52:44.642Z,98629.09
2017-11-16T02:53:16.517Z,98629.95
2017-11-16T02:53:48.143Z,98629.56
2017-11-16T02:54:19.874Z,98626.55
2017-11-16T02:54:51.516Z,98627.86
2017-11-16T02:55:23.158Z,98635.06
2017-11-16T02:55:54.800Z,98627.82
2017-11-16T02:56:26.749Z,98632.93
2017-11-16T02:56:58.390Z,98626.55
2017-11-16T02:57:30.056Z,98633.36
2017-11-16T02:58:01.679Z,98636.77
2017-11-16T02:58:33.322Z,98629.98
2017-11-16T02:59:05.000Z,98629.59
2017-11-16T02:59:36.624Z,98631.66
2017-11-16T03:00:08.247Z,98637.27
2017-11-16T03:00:39.881Z,98630.02
2017-11-16T03:01:11.527Z,98630.45
2017-11-16T03:01:43.167Z,98631.30
2017-11-16T03:02:14.814Z,98630.02
2017-11-16T03:02:46.689Z,98629.17
2017-11-16T03:03:18.317Z,98627.47
2017-11-16T03:03:49.943Z,98632.58
2017-11-16T03:04:21.611Z,98630.45
2017-11-16T03:04:53.245Z,98624.06
2017-11-16T03:05:24.879Z,98626.58
2017-11-16T03:05:56.611Z,98624.03
2017-11-16T03:06:28.252Z,98627.05
2017-11-16T03:06:59.894Z,98627.01
2017-11-16T03:07:31.537Z,98625.73
2017-11-16T03:08:03.181Z,98629.59
2017-11-16T03:08:34.849Z,98631.73
2017-11-16T03:09:06.481Z,98631.69
2017-11-16T03:09:38.226Z,98621.90
2017-11-16T03:10:09.856Z,98618.53
2017-11-16T03:10:41.691Z,98627.01
2017-11-16T03:11:13.337Z,98630.02
2017-11-16T03:11:44.979Z,98629.17
2017-11-16T03:12:16.620Z,98626.19
2017-11-16T03:12:48.247Z,98624.45
2017-11-16T03:13:19.904Z,98621.94
2017-11-16T03:13:51.572Z,98628.32
2017-11-16T03:14:23.196Z,98628.33
2017-11-16T03:14:54.830Z,98625.77
2017-11-16T03:15:26.455Z,98628.32
2017-11-16T03:15:58.119Z,98622.75
2017-11-16T03:16:29.755Z,98626.66
2017-11-16T03:17:01.396Z,98631.34
2017-11-16T03:17:33.039Z,98628.36
2017-11-16T03:18:04.679Z,98629.63
2017-11-16T03:18:36.323Z,98629.21
2017-11-16T03:19:07.965Z,98625.80
2017-11-16T03:19:39.608Z,98629.63
2017-11-16T03:20:11.240Z,98624.92
2017-11-16T03:20:42.891Z,98623.67
2017-11-16T03:21:14.560Z,98621.55
2017-11-16T03:21:46.182Z,98631.77
2017-11-16T03:22:17.817Z,98634.31
2017-11-16T03:22:50.682Z,98627.93
2017-11-16T03:23:22.329Z,98629.63
2017-11-16T03:23:53.974Z,98628.33
2017-11-16T03:24:25.609Z,98631.73
2017-11-16T03:24:57.263Z,98621.51
2017-11-16T03:25:28.900Z,98623.21
2017-11-16T03:26:00.538Z,98634.17
2017-11-16T03:26:32.203Z,98627.39
2017-11-16T03:27:03.835Z,98629.98
2017-11-16T03:27:35.772Z,98629.13
2017-11-16T03:28:07.414Z,98631.23
2017-11-16T03:28:39.057Z,98634.25
2017-11-16T03:29:10.701Z,98626.58
2017-11-16T03:29:42.380Z,98629.17
2017-11-16T03:30:14.004Z,98633.86
2017-11-16T03:30:45.629Z,98633.47
2017-11-16T03:31:17.268Z,98634.31
2017-11-16T03:31:49.077Z,98631.34
2017-11-16T03:32:20.744Z,98625.34
2017-11-16T03:32:52.497Z,98627.89
2017-11-16T03:33:24.139Z,98631.27
2017-11-16T03:33:55.779Z,98633.39
2017-11-16T03:34:27.447Z,98629.98
2017-11-16T03:34:59.071Z,98634.67
2017-11-16T03:35:30.707Z,98633.43
2017-11-16T03:36:02.331Z,98632.54
2017-11-16T03:36:33.992Z,98632.12
2017-11-16T03:37:05.634Z,98632.12
2017-11-16T03:37:37.511Z,98633.00
2017-11-16T03:38:09.135Z,98631.34
2017-11-16T03:38:40.872Z,98631.38
2017-11-16T03:39:12.509Z,98633.89
2017-11-16T03:39:44.148Z,98634.28
2017-11-16T03:40:15.791Z,98633.43
2017-11-16T03:40:47.434Z,98638.93
2017-11-16T03:41:19.077Z,98636.37
2017-11-16T03:41:50.714Z,98641.88
2017-11-16T03:42:22.359Z,98634.25
2017-11-16T03:42:54.023Z,98637.27
2017-11-16T03:43:25.659Z,98633.86
2017-11-16T03:43:57.593Z,98635.56
2017-11-16T03:44:29.223Z,98630.84
2017-11-16T03:45:00.882Z,98640.25
2017-11-16T03:45:32.523Z,98634.67
2017-11-16T03:46:04.160Z,98635.06
2017-11-16T03:46:35.811Z,98628.28
2017-11-16T03:47:07.750Z,98637.19
2017-11-16T03:47:39.395Z,98632.51
2017-11-16T03:48:11.077Z,98635.06
2017-11-16T03:48:42.704Z,98634.21
2017-11-16T03:49:14.327Z,98632.97
2017-11-16T03:49:45.964Z,98630.80
2017-11-16T03:50:17.601Z,98629.95
2017-11-16T03:50:49.243Z,98632.51
2017-11-16T03:51:20.887Z,98632.51
2017-11-16T03:51:53.399Z,98626.55
2017-11-16T03:52:25.113Z,98629.52
2017-11-16T03:52:56.747Z,98628.67
2017-11-16T03:53:28.416Z,98629.52
2017-11-16T03:54:00.043Z,98629.09
2017-11-16T03:54:31.670Z,98626.12
2017-11-16T03:55:03.608Z,98628.21
2017-11-16T03:55:35.250Z,98635.48
2017-11-16T03:56:06.892Z,98630.80
2017-11-16T03:56:38.533Z,98627.36
2017-11-16T03:57:10.180Z,98624.84
2017-11-16T03:57:41.817Z,98627.39
2017-11-16T03:58:13.460Z,98626.55
2017-11-16T03:58:45.099Z,98621.44
2017-11-16T03:59:16.752Z,98620.61
2017-11-16T03:59:48.693Z,98624.84
2017-11-16T04:00:20.332Z,98617.59
2017-11-16T04:00:51.973Z,98620.62
2017-11-16T04:01:23.617Z,98627.82
2017-11-16T04:01:55.260Z,98622.25
2017-11-16T04:02:26.902Z,98624.41
2017-11-16T04:02:58.540Z,98625.69
2017-11-16T04:03:30.187Z,98625.27
2017-11-16T04:04:01.830Z,98621.47
2017-11-16T04:04:33.777Z,98620.19
2017-11-16T04:05:05.459Z,98622.36
2017-11-16T04:05:37.083Z,98621.97
2017-11-16T04:06:08.708Z,98622.82
2017-11-16T04:06:40.335Z,98622.82
2017-11-16T04:07:11.988Z,98622.40
2017-11-16T04:07:43.628Z,98621.12
2017-11-16T04:08:15.270Z,98623.67
2017-11-16T04:08:46.912Z,98626.66
2017-11-16T04:09:18.551Z,98624.13
2017-11-16T04:09:50.196Z,98624.98
2017-11-16T04:10:21.864Z,98618.59
2017-11-16T04:10:53.491Z,98622.86
2017-11-16T04:11:25.362Z,98620.34
2017-11-16T04:11:56.996Z,98621.61
2017-11-16T04:12:28.620Z,98620.77
2017-11-16T04:13:00.355Z,98622.08
2017-11-16T04:13:31.996Z,98623.74
2017-11-16T04:14:03.641Z,98622.05
2017-11-16T04:14:35.286Z,98622.89
2017-11-16T04:15:06.923Z,98632.69
2017-11-16T04:15:38.616Z,98627.19
2017-11-16T04:16:10.516Z,98622.93
2017-11-16T04:16:42.155Z,98625.48
2017-11-16T04:17:13.796Z,98624.17
2017-11-16T04:17:45.439Z,98623.36
2017-11-16T04:18:17.084Z,98628.89
2017-11-16T04:18:48.721Z,98626.34
2017-11-16T04:19:20.372Z,98625.88
2017-11-16T04:19:52.007Z,98625.45
2017-11-16T04:20:23.650Z,98623.71
2017-11-16T04:20:55.331Z,98622.01
2017-11-16T04:21:26.968Z,98622.36
2017-11-16T04:21:58.609Z,98627.47
2017-11-16T04:22:30.239Z,98624.95
2017-11-16T04:23:01.864Z,98624.52
2017-11-16T04:23:33.500Z,98623.67
2017-11-16T04:24:05.141Z,98622.82
2017-11-16T04:24:36.783Z,98630.88
2017-11-16T04:25:08.424Z,98625.80
2017-11-16T04:25:40.067Z,98631.34
2017-11-16T04:26:11.743Z,98630.48
2017-11-16T04:26:43.367Z,98628.82
2017-11-16T04:27:15.265Z,98636.48
2017-11-16T04:27:46.895Z,98633.11
2017-11-16T04:28:18.523Z,98635.24
2017-11-16T04:28:50.147Z,98638.23
2017-11-16T04:29:21.771Z,98634.85
2017-11-16T04:29:53.509Z,98634.46
2017-11-16T04:30:25.458Z,98637.44
2017-11-16T04:30:57.098Z,98642.55
2017-11-16T04:31:28.932Z,98635.70
2017-11-16T04:32:00.691Z,98637.44
2017-11-16T04:32:32.330Z,98637.44
2017-11-16T04:33:03.974Z,98635.35
2017-11-16T04:33:35.618Z,98637.52
2017-11-16T04:34:07.273Z,98646.84
2017-11-16T04:34:39.208Z,98638.36
2017-11-16T04:35:10.852Z,98637.55
2017-11-16T04:35:42.492Z,98636.69
2017-11-16T04:36:14.115Z,98635.38
2017-11-16T04:36:45.779Z,98632.86
2017-11-16T04:37:17.459Z,98632.44
2017-11-16T04:37:49.089Z,98632.47
2017-11-16T04:38:20.725Z,98631.59
2017-11-16T04:38:52.355Z,98639.25
2017-11-16T04:39:24.299Z,98632.83
2017-11-16T04:39:55.932Z,98639.22
2017-11-16T04:40:27.576Z,98633.25
2017-11-16T04:40:59.219Z,98634.92
2017-11-16T04:41:30.860Z,98634.95
2017-11-16T04:42:02.502Z,98634.47
2017-11-16T04:42:34.167Z,98635.35
2017-11-16T04:43:05.791Z,98628.93
2017-11-16T04:43:37.428Z,98631.48
2017-11-16T04:44:09.052Z,98629.39
2017-11-16T04:44:40.680Z,98635.31
2017-11-16T04:45:12.308Z,98637.05
2017-11-16T04:45:43.992Z,98633.22
2017-11-16T04:46:15.637Z,98632.34
2017-11-16T04:46:47.279Z,98632.34
2017-11-16T04:47:18.921Z,98632.76
2017-11-16T04:47:50.562Z,98629.39
2017-11-16T04:48:22.188Z,98629.78
2017-11-16T04:48:53.847Z,98634.89
2017-11-16T04:49:25.491Z,98629.78
2017-11-16T04:49:57.131Z,98629.74
2017-11-16T04:50:28.773Z,98630.17
2017-11-16T04:51:00.446Z,98627.62
2017-11-16T04:51:32.079Z,98632.30
2017-11-16T04:52:03.703Z,98628.50
2017-11-16T04:52:35.368Z,98629.78
2017-11-16T04:53:06.996Z,98629.74
2017-11-16T04:53:38.932Z,98632.72
2017-11-16T04:54:10.573Z,98628.08
2017-11-16T04:54:42.214Z,98635.28
2017-11-16T04:55:13.854Z,98634.39
2017-11-16T04:55:45.499Z,98632.27
2017-11-16T04:56:17.354Z,98629.70
2017-11-16T04:56:49.091Z,98633.11
2017-11-16T04:57:20.775Z,98630.56
2017-11-16T04:57:52.400Z,98631.02
2017-11-16T04:58:24.631Z,98626.73
2017-11-16T04:58:56.277Z,98632.27
2017-11-16T04:59:27.918Z,98630.56
2017-11-16T04:59:59.560Z,98629.28
2017-11-16T05:00:31.196Z,98630.09
2017-11-16T05:01:02.838Z,98630.09
2017-11-16T05:01:34.482Z,98631.77
2017-11-16T05:02:06.151Z,98633.05
2017-11-16T05:02:37.783Z,98632.19
2017-11-16T05:03:09.463Z,98624.52
2017-11-16T05:03:41.089Z,98630.02
2017-11-16T05:04:12.713Z,98630.84
2017-11-16T05:04:44.340Z,98631.73
2017-11-16T05:05:15.975Z,98627.86
2017-11-16T05:05:47.617Z,98627.86
2017-11-16T05:06:19.257Z,98628.75
2017-11-16T05:06:50.903Z,98620.66
2017-11-16T05:07:22.546Z,98628.75
2017-11-16T05:07:54.188Z,98631.66
2017-11-16T05:08:25.868Z,98629.95
2017-11-16T05:08:57.492Z,98635.88
2017-11-16T05:09:29.115Z,98628.21
2017-11-16T05:10:00.751Z,98634.59
2017-11-16T05:10:32.394Z,98629.48
2017-11-16T05:11:04.035Z,98632.04
2017-11-16T05:11:35.675Z,98634.59
2017-11-16T05:12:07.343Z,98627.74
2017-11-16T05:12:38.972Z,98626.08
2017-11-16T05:13:10.910Z,98630.30
2017-11-16T05:13:42.552Z,98630.77
2017-11-16T05:14:14.222Z,98629.87
2017-11-16T05:14:45.847Z,98626.05
2017-11-16T05:15:17.527Z,98625.61
2017-11-16T05:15:49.155Z,98628.59
2017-11-16T05:16:20.779Z,98637.97
2017-11-16T05:16:52.736Z,98634.14
2017-11-16T05:17:24.372Z,98627.78
2017-11-16T05:17:55.999Z,98631.20
2017-11-16T05:18:27.634Z,98631.62
2017-11-16T05:18:59.511Z,98636.73
2017-11-16T05:19:31.153Z,98632.04
2017-11-16T05:20:02.780Z,98629.91
2017-11-16T05:20:34.453Z,98634.56
2017-11-16T05:21:06.074Z,98629.45
2017-11-16T05:21:37.694Z,98630.73
2017-11-16T05:22:09.624Z,98626.89
2017-11-16T05:22:41.386Z,98633.28
2017-11-16T05:23:13.026Z,98630.73
2017-11-16T05:23:44.669Z,98635.02
2017-11-16T05:24:16.311Z,98637.58
2017-11-16T05:24:47.975Z,98635.34
2017-11-16T05:25:19.600Z,98636.58
2017-11-16T05:25:51.237Z,98639.59
2017-11-16T05:26:22.878Z,98643.86
2017-11-16T05:26:54.522Z,98639.59
2017-11-16T05:27:26.163Z,98641.30
2017-11-16T05:27:57.804Z,98640.45
2017-11-16T05:28:29.453Z,98640.41
2017-11-16T05:29:01.396Z,98637.04
2017-11-16T05:29:33.038Z,98640.02
2017-11-16T05:30:04.703Z,98639.63
2017-11-16T05:30:36.329Z,98637.12
2017-11-16T05:31:07.965Z,98635.02
2017-11-16T05:31:39.605Z,98634.98
2017-11-16T05:32:11.247Z,98631.15
2017-11-16T05:32:42.889Z,98634.13
2017-11-16T05:33:14.515Z,98635.80
2017-11-16T05:33:46.193Z,98628.98
2017-11-16T05:34:17.831Z,98627.28
2017-11-16T05:34:49.691Z,98628.59
2017-11-16T05:35:21.410Z,98629.87
2017-11-16T05:35:53.048Z,98634.56
2017-11-16T05:36:24.689Z,98635.80
2017-11-16T05:36:56.332Z,98629.45
2017-11-16T05:37:28.281Z,98627.36
2017-11-16T05:37:59.923Z,98631.19
2017-11-16T05:38:31.564Z,98629.95
2017-11-16T05:39:03.207Z,98621.51
2017-11-16T05:39:34.848Z,98628.71
2017-11-16T05:40:06.508Z,98628.28
2017-11-16T05:40:38.181Z,98634.70
2017-11-16T05:41:09.817Z,98635.98
2017-11-16T05:41:41.443Z,98627.89
2017-11-16T05:42:13.072Z,98634.71
2017-11-16T05:42:44.942Z,98633.82
2017-11-16T05:43:16.564Z,98635.98
2017-11-16T05:43:48.192Z,98637.23
2017-11-16T05:44:19.863Z,98634.71
2017-11-16T05:44:51.490Z,98638.55
2017-11-16T05:45:23.220Z,98638.12
2017-11-16T05:45:54.864Z,98640.25
2017-11-16T05:46:26.503Z,98639.00
2017-11-16T05:46:58.157Z,98644.54
2017-11-16T05:47:29.795Z,98642.41
2017-11-16T05:48:01.734Z,98643.27
2017-11-16T05:48:33.374Z,98642.84
2017-11-16T05:49:05.008Z,98639.89
2017-11-16T05:49:36.676Z,98638.61
2017-11-16T05:50:08.307Z,98637.37
2017-11-16T05:50:40.250Z,98643.80
2017-11-16T05:51:11.883Z,98642.09
2017-11-16T05:51:43.534Z,98635.28
2017-11-16T05:52:15.176Z,98642.09
2017-11-16T05:52:46.819Z,98644.61
2017-11-16T05:53:18.458Z,98639.53
2017-11-16T05:53:50.098Z,98641.66
2017-11-16T05:54:21.744Z,98638.30
2017-11-16T05:54:53.423Z,98635.73
2017-11-16T05:55:25.064Z,98637.41
2017-11-16T05:55:56.687Z,98637.48
2017-11-16T05:56:28.552Z,98636.59
2017-11-16T05:57:00.183Z,98637.87
2017-11-16T05:57:31.808Z,98636.13
2017-11-16T05:58:03.544Z,98636.16
2017-11-16T05:58:35.183Z,98639.14
2017-11-16T05:59:06.828Z,98642.55
2017-11-16T05:59:38.470Z,98640.81
2017-11-16T06:00:10.136Z,98638.26
2017-11-16T06:00:41.761Z,98638.30
2017-11-16T06:01:13.435Z,98634.42
2017-11-16T06:01:45.065Z,98632.33
2017-11-16T06:02:16.687Z,98632.73
2017-11-16T06:02:48.325Z,98629.75
2017-11-16T06:03:19.963Z,98632.33
2017-11-16T06:03:51.595Z,98634.89
2017-11-16T06:04:23.244Z,98629.75
2017-11-16T06:04:54.889Z,98628.50
2017-11-16T06:05:26.533Z,98638.72
2017-11-16T06:05:58.172Z,98636.16
2017-11-16T06:06:29.815Z,98638.26
2017-11-16T06:07:01.457Z,98630.63
2017-11-16T06:07:33.097Z,98635.73
2017-11-16T06:08:04.749Z,98635.28
2017-11-16T06:08:36.392Z,98636.13
2017-11-16T06:09:08.331Z,98633.15
2017-11-16T06:09:39.973Z,98636.13
2017-11-16T06:10:11.923Z,98637.83
2017-11-16T06:10:43.775Z,98634.47
2017-11-16T06:11:15.514Z,98639.57
2017-11-16T06:11:47.156Z,98630.63